30. September 2022

Uhrzeit Code Wetter Temp. Sichtweite Wolkendecke Wind METAR/SPECI
14:50
V
16 °C 10 km+ - 200° 200° 10 kt METAR EDDL 301250Z AUTO 20010KT 170V240 9999 SCT040 16/07 Q1010 NOSIG
14:20
V
16 °C 10 km+ - 190° 190° 8 kt METAR EDDL 301220Z AUTO 19008KT 160V230 9999 FEW037 16/08 Q1010 NOSIG
13:50
V
16 °C 10 km+ 3.200 ft 210° 210° 10 kt METAR EDDL 301150Z AUTO 21010KT 140V250 9999 BKN032 16/09 Q1011 NOSIG
13:20
V
15 °C 10 km+ - 210° 210° 7 kt METAR EDDL 301120Z AUTO 21007KT 180V250 9999 SCT027 SCT034 15/09 Q1011
12:50
V
15 °C 10 km+ - 190° 190° 8 kt METAR EDDL 301050Z AUTO 19008KT 160V230 CAVOK 15/09 Q1011 NOSIG
12:20
V
14 °C 10 km+ - 190° 190° 7 kt METAR EDDL 301020Z AUTO 19007KT 140V230 CAVOK 14/09 Q1011 NOSIG
11:50
V
13 °C 10 km+ - 190° 190° 6 kt METAR EDDL 300950Z AUTO 19006KT 160V230 CAVOK 13/08 Q1011 NOSIG
11:20
V
12 °C 10 km+ - 180° 180° 6 kt METAR EDDL 300920Z AUTO 18006KT 140V220 9999 FEW037 12/08 Q1011 NOSIG
10:50
V
11 °C 10 km+ - 170° 170° 6 kt METAR EDDL 300850Z AUTO 17006KT 140V200 9999 FEW036 11/08 Q1011 NOSIG
10:20
V
10 °C 10 km+ - 150° 150° 6 kt METAR EDDL 300820Z AUTO 15006KT CAVOK 10/07 Q1011 NOSIG
09:50
V
9 °C 10 km+ - 170° 170° 6 kt METAR EDDL 300750Z AUTO 17006KT CAVOK 09/06 Q1011 NOSIG
09:20
V
8 °C 10 km+ - 150° 150° 6 kt METAR EDDL 300720Z AUTO 15006KT CAVOK 08/06 Q1011 NOSIG
08:50
V
8 °C 10 km+ - 170° 170° 6 kt METAR EDDL 300650Z AUTO 17006KT CAVOK 08/06 Q1011 NOSIG
08:20
V
7 °C 10 km+ - 170° 170° 6 kt METAR EDDL 300620Z AUTO 17006KT CAVOK 07/05 Q1010 NOSIG
07:50
V
6 °C 10 km+ - 170° 170° 6 kt METAR EDDL 300550Z AUTO 17006KT CAVOK 06/05 Q1010 NOSIG
07:20
V
6 °C 10 km+ - 150° 150° 8 kt METAR EDDL 300520Z AUTO 15008KT CAVOK 06/05 Q1009 NOSIG
06:50
V
6 °C 10 km+ - 150° 150° 9 kt METAR EDDL 300450Z AUTO 15009KT CAVOK 06/05 Q1009 NOSIG
06:20
V
6 °C 10 km+ - 160° 160° 7 kt METAR EDDL 300420Z AUTO 16007KT CAVOK 06/05 Q1009 NOSIG
05:50
V
6 °C 10 km+ - 160° 160° 8 kt METAR EDDL 300350Z AUTO 16008KT CAVOK 06/05 Q1009 NOSIG
05:20
V
6 °C 10 km+ - 160° 160° 7 kt METAR EDDL 300320Z AUTO 16007KT CAVOK 06/05 Q1008 NOSIG
04:50
V
6 °C 10 km+ - 140° 140° 7 kt METAR EDDL 300250Z AUTO 14007KT CAVOK 06/05 Q1008 NOSIG
04:20
V
4 °C 10 km+ - 140° 140° 3 kt METAR EDDL 300220Z AUTO 14003KT 070V180 CAVOK 04/03 Q1008 NOSIG
03:50
V
5 °C 10 km+ - 160° 160° 3 kt METAR EDDL 300150Z AUTO 16003KT CAVOK 05/04 Q1008 NOSIG
03:20
V
5 °C 10 km+ - Var Var 2 kt METAR EDDL 300120Z AUTO VRB02KT CAVOK 05/05 Q1008 NOSIG
02:50
V
4 °C 10 km+ - 110° 110° 3 kt METAR EDDL 300050Z AUTO 11003KT 050V130 CAVOK 04/04 Q1008 NOSIG
02:20
V
4 °C 10 km+ - 100° 100° 2 kt METAR EDDL 300020Z AUTO 10002KT CAVOK 04/04 Q1008 NOSIG
01:50
V
5 °C 10 km+ - 110° 110° 3 kt METAR EDDL 292350Z AUTO 11003KT CAVOK 05/04 Q1008 NOSIG
01:20
V
5 °C 10 km+ - 100° 100° 3 kt METAR EDDL 292320Z AUTO 10003KT CAVOK 05/05 Q1008 NOSIG
00:50
V
5 °C 10 km+ - 080° 080° 3 kt METAR EDDL 292250Z AUTO 08003KT CAVOK 05/05 Q1007 NOSIG
00:20
V
6 °C 10 km+ - 110° 110° 2 kt METAR EDDL 292220Z AUTO 11002KT CAVOK 06/05 Q1007 NOSIG

29. September 2022

Uhrzeit Code Wetter Temp. Sichtweite Wolkendecke Wind METAR/SPECI
23:50
V
6 °C 10 km+ - 110° 110° 2 kt METAR EDDL 292150Z AUTO 11002KT CAVOK 06/06 Q1007 NOSIG
23:20
V
7 °C 10 km+ - 070° 070° 3 kt METAR EDDL 292120Z AUTO 07003KT CAVOK 07/06 Q1007 NOSIG
22:50
V
7 °C 10 km+ - 100° 100° 3 kt METAR EDDL 292050Z AUTO 10003KT CAVOK 07/06 Q1007 NOSIG
22:20
V
7 °C 10 km+ - 100° 100° 2 kt METAR EDDL 292020Z AUTO 10002KT CAVOK 07/06 Q1006 NOSIG
21:50
V
7 °C 10 km+ - 090° 090° 3 kt METAR EDDL 291950Z AUTO 09003KT CAVOK 07/06 Q1006 NOSIG
21:20
V
8 °C 10 km+ - Var Var 2 kt METAR EDDL 291920Z AUTO VRB02KT CAVOK 08/06 Q1006 NOSIG
20:50
V
8 °C 10 km+ - Var Var 1 kt METAR EDDL 291850Z AUTO VRB01KT CAVOK 08/06 Q1005 NOSIG
20:20
V
8 °C 10 km+ - Var Var 1 kt METAR EDDL 291820Z AUTO VRB01KT CAVOK 08/06 Q1005 NOSIG
19:50
V
9 °C 10 km+ - Var Var 2 kt METAR EDDL 291750Z AUTO VRB02KT CAVOK 09/07 Q1005 NOSIG
19:20
V
11 °C 10 km+ - 360° 360° 1 kt METAR EDDL 291720Z AUTO 36001KT CAVOK 11/08 Q1004 NOSIG
18:50
V
14 °C 10 km+ - 340° 340° 3 kt METAR EDDL 291650Z AUTO 34003KT 290V050 CAVOK 14/07 Q1004 NOSIG
18:20
V
15 °C 10 km+ - 340° 340° 3 kt METAR EDDL 291620Z AUTO 34003KT 290V010 CAVOK 15/06 Q1004 NOSIG
17:50
V
16 °C 10 km+ - 330° 330° 4 kt METAR EDDL 291550Z AUTO 33004KT 290V350 CAVOK 16/05 Q1003 NOSIG
17:20
V
16 °C 10 km+ - Var Var 3 kt METAR EDDL 291520Z AUTO VRB03KT CAVOK 16/05 Q1003 NOSIG
16:50
V
16 °C 10 km+ - 330° 330° 3 kt METAR EDDL 291450Z AUTO 33003KT 280V050 9999 SCT042 16/05 Q1003 NOSIG
16:20
V
16 °C 10 km+ - 290° 290° 4 kt METAR EDDL 291420Z AUTO 29004KT 250V340 9999 FEW041 16/06 Q1003 NOSIG
15:50
V
17 °C 10 km+ - Var Var 4 kt METAR EDDL 291350Z AUTO VRB04KT CAVOK 17/06 Q1003 NOSIG
15:20
V
16 °C 10 km+ - Var Var 4 kt METAR EDDL 291320Z AUTO VRB04KT CAVOK 16/05 Q1003 NOSIG
14:50
V
15 °C 10 km+ - Var Var 1 kt METAR EDDL 291250Z AUTO VRB01KT CAVOK 15/06 Q1003 NOSIG
14:20
V
14 °C 10 km+ - 280° 280° 5 kt METAR EDDL 291220Z AUTO 28005KT 220V030 9999 FEW033 14/06 Q1003 NOSIG
13:50
V
13 °C 10 km+ - 280° 280° 4 kt METAR EDDL 291150Z AUTO 28004KT 230V310 CAVOK 13/06 Q1003 NOSIG
13:20
V
14 °C 10 km+ - Var Var 2 kt METAR EDDL 291120Z AUTO VRB02KT 9999 FEW028 SCT037 14/07 Q1003 NOSIG
12:50
V
15 °C 10 km+ - Var Var 3 kt METAR EDDL 291050Z AUTO VRB03KT 9999 FEW026 15/08 Q1002 NOSIG
12:20
V
14 °C 10 km+ - 230° 230° 5 kt METAR EDDL 291020Z AUTO 23005KT 200V260 CAVOK 14/08 Q1002 NOSIG
11:50
V
13 °C 10 km+ - 150° 150° 3 kt METAR EDDL 290950Z AUTO 15003KT 060V210 CAVOK 13/07 Q1002 NOSIG
11:20
V
12 °C 10 km+ - 170° 170° 3 kt METAR EDDL 290920Z AUTO 17003KT 120V240 CAVOK 12/08 Q1002 NOSIG
10:50
V
11 °C 10 km+ - 180° 180° 5 kt METAR EDDL 290850Z AUTO 18005KT 150V220 CAVOK 11/08 Q1002 NOSIG
10:20
V
10 °C 10 km+ - 170° 170° 3 kt METAR EDDL 290820Z AUTO 17003KT 130V220 CAVOK 10/07 Q1002 RE// NOSIG
09:50
V
9 °C 10 km+ - 140° 140° 4 kt METAR EDDL 290750Z AUTO 14004KT CAVOK 09/07 Q1002 NOSIG
09:20
V
8 °C 10 km+ - 170° 170° 7 kt METAR EDDL 290720Z AUTO 17007KT CAVOK 08/07 Q1001 NOSIG
08:50
V
8 °C 10 km+ - 170° 170° 6 kt METAR EDDL 290650Z AUTO 17006KT 130V200 CAVOK 08/06 Q1001 NOSIG
08:20
V
7 °C 10 km+ - 160° 160° 7 kt METAR EDDL 290620Z AUTO 16007KT CAVOK 07/06 Q1001 NOSIG
07:50
V
7 °C 10 km+ - 160° 160° 8 kt METAR EDDL 290550Z AUTO 16008KT CAVOK 07/06 Q1001 NOSIG
07:20
V
7 °C 10 km+ - 160° 160° 8 kt METAR EDDL 290520Z AUTO 16008KT CAVOK 07/06 Q1001 NOSIG
06:50
V
7 °C 10 km+ - 150° 150° 6 kt METAR EDDL 290450Z AUTO 15006KT CAVOK 07/06 Q1000 NOSIG
06:20
V
7 °C 10 km+ - 150° 150° 8 kt METAR EDDL 290420Z AUTO 15008KT CAVOK 07/06 Q1000 NOSIG
05:50
V
7 °C 10 km+ - 150° 150° 8 kt METAR EDDL 290350Z AUTO 15008KT CAVOK 07/06 Q1000 TEMPO 1500 BCFG
05:20
V
7 °C 10 km+ - 150° 150° 7 kt METAR EDDL 290320Z AUTO 15007KT CAVOK 07/06 Q1000 TEMPO 1500 BCFG
04:50
V
5 °C 10 km+ - 140° 140° 7 kt METAR EDDL 290250Z AUTO 14007KT CAVOK 05/04 Q1000 TEMPO 1500 BCFG
04:20
V
6 °C 10 km+ - Var Var 2 kt METAR EDDL 290220Z AUTO VRB02KT CAVOK 06/06 Q1000 TEMPO 1500 BCFG
03:50
L
6 °C 750 m - Var Var 2 kt METAR EDDL 290150Z AUTO VRB02KT 9999 0750 R23R/1400D R23L/P2000N BCFG NCD 06/06 Q1000 TEMPO 1500 BR
03:20
V
6 °C 10 km+ - Var Var 2 kt METAR EDDL 290120Z AUTO VRB02KT CAVOK 06/06 Q1000 TEMPO 1500 BR
02:50
V
6 °C 10 km+ - 120° 120° 3 kt METAR EDDL 290050Z AUTO 12003KT CAVOK 06/06 Q1000 TEMPO 1500 BR
02:20
V
7 °C 10 km+ - 130° 130° 3 kt METAR EDDL 290020Z AUTO 13003KT 100V160 CAVOK 07/06 Q1000 NOSIG
01:50
V
7 °C 10 km+ - 140° 140° 4 kt METAR EDDL 282350Z AUTO 14004KT CAVOK 07/07 Q1000 NOSIG
01:20
V
7 °C 10 km+ - 160° 160° 5 kt METAR EDDL 282320Z AUTO 16005KT CAVOK 07/06 Q1000 NOSIG
00:50
V
7 °C 10 km+ - 150° 150° 7 kt METAR EDDL 282250Z AUTO 15007KT CAVOK 07/07 Q1000 NOSIG
00:20
V
7 °C 10 km+ - 140° 140° 5 kt METAR EDDL 282220Z AUTO 14005KT CAVOK 07/06 Q1000 NOSIG

28. September 2022

Uhrzeit Code Wetter Temp. Sichtweite Wolkendecke Wind METAR/SPECI
23:50
V
7 °C 10 km+ - 150° 150° 6 kt METAR EDDL 282150Z AUTO 15006KT CAVOK 07/07 Q1000 NOSIG
23:20
V
8 °C 10 km+ - 140° 140° 6 kt METAR EDDL 282120Z AUTO 14006KT CAVOK 08/07 Q1000 NOSIG
22:50
V
8 °C 10 km+ - 160° 160° 6 kt METAR EDDL 282050Z AUTO 16006KT 9999 FEW001 08/07 Q1000 NOSIG
22:20
V
8 °C 10 km+ - 160° 160° 6 kt METAR EDDL 282020Z AUTO 16006KT 9999 FEW001 08/07 Q0999 NOSIG
21:50
V
8 °C 10 km+ - 150° 150° 6 kt METAR EDDL 281950Z AUTO 15006KT 9999 FEW001 08/08 Q0999 NOSIG
21:20
V
9 °C 10 km+ - 170° 170° 6 kt METAR EDDL 281920Z AUTO 17006KT CAVOK 09/08 Q0999 NOSIG
20:50
V
7 °C 10 km+ - 190° 190° 5 kt METAR EDDL 281850Z AUTO 19005KT CAVOK 07/07 Q0999 NOSIG
20:20
V
8 °C 10 km+ - Var 000° 0 kt METAR EDDL 281820Z AUTO 00000KT CAVOK 08/08 Q0999 NOSIG
19:50
V
9 °C 10 km+ - 230° 230° 3 kt METAR EDDL 281750Z AUTO 23003KT 200V260 CAVOK 09/08 Q0999 RESHRA NOSIG
19:20
V
9 °C 10 km+ - 250° 250° 3 kt METAR EDDL 281720Z AUTO 25003KT 210V280 9999 SHRA SCT040 FEW///CB 09/08 Q0999 BECMG NSW
18:50
V
9 °C 9 km 4.400 ft 270° 270° 9 kt METAR EDDL 281650Z AUTO 27009KT 9000 SHRA BKN044 FEW///TCU 09/08 Q0999 BECMG NSW
18:20
V
10 °C 10 km+ 4.800 ft 230° 230° 8 kt METAR EDDL 281620Z AUTO 23008KT 9999 -RA FEW025 BKN048 10/08 Q0999 RESHRA NOSIG
17:50
V
10 °C 10 km+ 4.300 ft 240° 240° 5 kt METAR EDDL 281550Z AUTO 24005KT 220V300 9999 SHRA FEW029 BKN043 FEW///CB 10/08 Q0998 RETS TEMPO NSW
17:20
V
11 °C 10 km+ 4.600 ft 300° 300° 10 kt METAR EDDL 281520Z AUTO 30010KT 270V330 9999 SHRA FEW017 BKN046 FEW///CB 11/07 Q0998 TEMPO 4000 TSRA
16:50
V
14 °C 10 km+ - 240° 240° 11 kt METAR EDDL 281450Z AUTO 24011KT 9999 -SHRA FEW037 FEW///CB 14/07 Q0997 RESHRA TEMPO SHRA
16:20
V
14 °C 10 km+ 3.800 ft 230° 230° 13 kt METAR EDDL 281420Z AUTO 23013KT 9999 -SHRA SCT029 BKN038 FEW///CB 14/08 Q0997 TEMPO SHRA
15:50
V
14 °C 10 km+ - 250° 250° 10 kt METAR EDDL 281350Z AUTO 25010KT 9999 VCSH SCT031 FEW///CB 14/07 Q0997 TEMPO SHRA
15:20
V
13 °C 10 km+ - 220° 220° 5 kt METAR EDDL 281320Z AUTO 22005KT 9999 FEW028 13/08 Q0997 TEMPO SHRA SCT025CB
14:50
V
13 °C 10 km+ - 270° 270° 8 kt METAR EDDL 281250Z AUTO 27008KT 9999 VCSH FEW033 FEW///TCU 13/07 Q0997 NOSIG
Ältere Daten

Wir und Dritte verfolgen dein Internetverhalten auf unserer Website mit Cookies. Wenn du fortfährst, gehen wir davon aus, dass du mit unserer Cookie-Richtlinie einverstanden bist. Mehr erfahren